sensor_id;sensor_type;location;lat;lon;timestamp;P1;durP1;ratioP1;P2;durP2;ratioP2
32946;SDS011;54465;51.230;22.504;2024-03-08T00:02:25;32.47;;;17.40;;
32946;SDS011;54465;51.230;22.504;2024-03-08T00:07:26;39.78;;;20.17;;
32946;SDS011;54465;51.230;22.504;2024-03-08T00:12:28;38.67;;;20.05;;
32946;SDS011;54465;51.230;22.504;2024-03-08T00:17:28;41.75;;;21.58;;
32946;SDS011;54465;51.230;22.504;2024-03-08T00:22:29;38.80;;;22.42;;
32946;SDS011;54465;51.230;22.504;2024-03-08T00:27:30;44.35;;;24.20;;
32946;SDS011;54465;51.230;22.504;2024-03-08T00:32:31;40.05;;;20.85;;
32946;SDS011;54465;51.230;22.504;2024-03-08T00:37:32;30.33;;;16.52;;
32946;SDS011;54465;51.230;22.504;2024-03-08T00:42:32;25.95;;;14.70;;
32946;SDS011;54465;51.230;22.504;2024-03-08T00:47:33;20.98;;;12.55;;
32946;SDS011;54465;51.230;22.504;2024-03-08T00:52:34;22.38;;;12.27;;
32946;SDS011;54465;51.230;22.504;2024-03-08T00:57:34;24.27;;;12.15;;
32946;SDS011;54465;51.230;22.504;2024-03-08T01:02:35;22.35;;;13.63;;
32946;SDS011;54465;51.230;22.504;2024-03-08T01:07:36;28.98;;;14.25;;
32946;SDS011;54465;51.230;22.504;2024-03-08T01:12:36;22.70;;;14.23;;
32946;SDS011;54465;51.230;22.504;2024-03-08T01:17:37;24.17;;;13.63;;
32946;SDS011;54465;51.230;22.504;2024-03-08T01:22:38;27.10;;;14.20;;
32946;SDS011;54465;51.230;22.504;2024-03-08T01:27:39;28.92;;;14.25;;
32946;SDS011;54465;51.230;22.504;2024-03-08T01:32:39;25.17;;;15.05;;
32946;SDS011;54465;51.230;22.504;2024-03-08T01:37:40;26.63;;;14.52;;
32946;SDS011;54465;51.230;22.504;2024-03-08T01:42:40;23.40;;;15.43;;
32946;SDS011;54465;51.230;22.504;2024-03-08T01:47:41;27.48;;;15.57;;
32946;SDS011;54465;51.230;22.504;2024-03-08T01:52:41;26.38;;;15.23;;
32946;SDS011;54465;51.230;22.504;2024-03-08T01:57:42;30.55;;;16.10;;
32946;SDS011;54465;51.230;22.504;2024-03-08T02:02:43;28.05;;;15.93;;
32946;SDS011;54465;51.230;22.504;2024-03-08T02:07:45;26.02;;;16.42;;
32946;SDS011;54465;51.230;22.504;2024-03-08T02:12:46;34.47;;;16.92;;
32946;SDS011;54465;51.230;22.504;2024-03-08T02:17:46;30.58;;;16.98;;
32946;SDS011;54465;51.230;22.504;2024-03-08T02:22:47;29.88;;;17.55;;
32946;SDS011;54465;51.230;22.504;2024-03-08T02:27:48;28.95;;;16.88;;
32946;SDS011;54465;51.230;22.504;2024-03-08T02:32:49;34.15;;;19.52;;
32946;SDS011;54465;51.230;22.504;2024-03-08T02:37:49;32.05;;;17.83;;
32946;SDS011;54465;51.230;22.504;2024-03-08T02:42:49;34.50;;;18.98;;
32946;SDS011;54465;51.230;22.504;2024-03-08T02:47:50;30.45;;;17.90;;
32946;SDS011;54465;51.230;22.504;2024-03-08T02:52:51;37.15;;;19.88;;
32946;SDS011;54465;51.230;22.504;2024-03-08T02:57:52;32.33;;;19.05;;
32946;SDS011;54465;51.230;22.504;2024-03-08T03:02:54;34.05;;;19.13;;
32946;SDS011;54465;51.230;22.504;2024-03-08T03:07:55;40.88;;;20.17;;
32946;SDS011;54465;51.230;22.504;2024-03-08T03:12:56;34.45;;;17.40;;
32946;SDS011;54465;51.230;22.504;2024-03-08T03:17:56;33.47;;;18.20;;
32946;SDS011;54465;51.230;22.504;2024-03-08T03:22:57;28.98;;;16.75;;
32946;SDS011;54465;51.230;22.504;2024-03-08T03:27:57;25.45;;;16.25;;
32946;SDS011;54465;51.230;22.504;2024-03-08T03:32:58;34.75;;;17.70;;
32946;SDS011;54465;51.230;22.504;2024-03-08T03:38:01;32.15;;;17.75;;
32946;SDS011;54465;51.230;22.504;2024-03-08T03:43:05;30.33;;;18.42;;
32946;SDS011;54465;51.230;22.504;2024-03-08T03:48:06;29.40;;;16.88;;
32946;SDS011;54465;51.230;22.504;2024-03-08T03:53:09;29.25;;;17.83;;
32946;SDS011;54465;51.230;22.504;2024-03-08T03:58:09;34.05;;;16.52;;
32946;SDS011;54465;51.230;22.504;2024-03-08T04:03:10;27.40;;;16.63;;
32946;SDS011;54465;51.230;22.504;2024-03-08T04:08:10;30.08;;;18.23;;
32946;SDS011;54465;51.230;22.504;2024-03-08T04:13:11;31.55;;;17.15;;
32946;SDS011;54465;51.230;22.504;2024-03-08T04:18:11;24.95;;;15.35;;
32946;SDS011;54465;51.230;22.504;2024-03-08T04:23:12;30.27;;;17.35;;
32946;SDS011;54465;51.230;22.504;2024-03-08T04:28:12;29.90;;;16.35;;
32946;SDS011;54465;51.230;22.504;2024-03-08T04:33:13;29.70;;;16.60;;
32946;SDS011;54465;51.230;22.504;2024-03-08T04:38:18;29.15;;;16.30;;
32946;SDS011;54465;51.230;22.504;2024-03-08T04:43:18;23.13;;;14.57;;
32946;SDS011;54465;51.230;22.504;2024-03-08T04:48:20;24.83;;;15.60;;
32946;SDS011;54465;51.230;22.504;2024-03-08T04:53:21;28.38;;;17.13;;
32946;SDS011;54465;51.230;22.504;2024-03-08T04:58:21;29.67;;;16.20;;
32946;SDS011;54465;51.230;22.504;2024-03-08T05:03:22;25.38;;;16.40;;
32946;SDS011;54465;51.230;22.504;2024-03-08T05:08:25;26.55;;;16.00;;
32946;SDS011;54465;51.230;22.504;2024-03-08T05:13:26;22.52;;;14.65;;
32946;SDS011;54465;51.230;22.504;2024-03-08T05:18:27;24.10;;;16.48;;
32946;SDS011;54465;51.230;22.504;2024-03-08T05:23:32;29.65;;;18.33;;
32946;SDS011;54465;51.230;22.504;2024-03-08T05:28:32;68.93;;;37.40;;
32946;SDS011;54465;51.230;22.504;2024-03-08T05:33:33;84.35;;;39.58;;
32946;SDS011;54465;51.230;22.504;2024-03-08T05:38:37;56.70;;;32.60;;
32946;SDS011;54465;51.230;22.504;2024-03-08T05:43:37;128.77;;;66.97;;
32946;SDS011;54465;51.230;22.504;2024-03-08T05:48:38;50.70;;;32.83;;
32946;SDS011;54465;51.230;22.504;2024-03-08T05:53:39;37.00;;;21.60;;
32946;SDS011;54465;51.230;22.504;2024-03-08T05:58:39;32.90;;;17.63;;
32946;SDS011;54465;51.230;22.504;2024-03-08T06:03:40;24.20;;;15.88;;
32946;SDS011;54465;51.230;22.504;2024-03-08T06:08:45;26.70;;;17.13;;
32946;SDS011;54465;51.230;22.504;2024-03-08T06:13:47;26.45;;;17.00;;
32946;SDS011;54465;51.230;22.504;2024-03-08T06:18:48;31.25;;;16.80;;
32946;SDS011;54465;51.230;22.504;2024-03-08T06:23:49;31.55;;;17.67;;
32946;SDS011;54465;51.230;22.504;2024-03-08T06:28:49;31.27;;;17.55;;
32946;SDS011;54465;51.230;22.504;2024-03-08T06:33:50;25.33;;;15.60;;
32946;SDS011;54465;51.230;22.504;2024-03-08T06:38:51;24.40;;;15.88;;
32946;SDS011;54465;51.230;22.504;2024-03-08T06:43:52;27.50;;;16.08;;
32946;SDS011;54465;51.230;22.504;2024-03-08T06:48:57;28.20;;;16.58;;
32946;SDS011;54465;51.230;22.504;2024-03-08T06:53:57;28.05;;;17.05;;
32946;SDS011;54465;51.230;22.504;2024-03-08T06:58:58;27.50;;;16.92;;
32946;SDS011;54465;51.230;22.504;2024-03-08T07:03:58;28.10;;;17.65;;
32946;SDS011;54465;51.230;22.504;2024-03-08T07:09:00;30.20;;;17.17;;
32946;SDS011;54465;51.230;22.504;2024-03-08T07:14:02;28.23;;;16.13;;
32946;SDS011;54465;51.230;22.504;2024-03-08T07:19:05;26.10;;;16.17;;
32946;SDS011;54465;51.230;22.504;2024-03-08T07:24:06;29.75;;;17.23;;
32946;SDS011;54465;51.230;22.504;2024-03-08T07:29:22;26.40;;;16.13;;
32946;SDS011;54465;51.230;22.504;2024-03-08T07:34:23;29.95;;;16.75;;
32946;SDS011;54465;51.230;22.504;2024-03-08T07:39:23;27.40;;;16.08;;
32946;SDS011;54465;51.230;22.504;2024-03-08T07:44:23;25.60;;;15.55;;
32946;SDS011;54465;51.230;22.504;2024-03-08T07:49:24;23.73;;;14.60;;
32946;SDS011;54465;51.230;22.504;2024-03-08T07:54:24;26.17;;;14.82;;
32946;SDS011;54465;51.230;22.504;2024-03-08T07:59:26;24.20;;;14.40;;
32946;SDS011;54465;51.230;22.504;2024-03-08T08:04:26;23.13;;;13.77;;
32946;SDS011;54465;51.230;22.504;2024-03-08T08:09:27;21.13;;;12.95;;
32946;SDS011;54465;51.230;22.504;2024-03-08T08:14:34;17.33;;;11.75;;
32946;SDS011;54465;51.230;22.504;2024-03-08T08:19:35;20.55;;;12.00;;
32946;SDS011;54465;51.230;22.504;2024-03-08T08:24:35;18.20;;;11.45;;
32946;SDS011;54465;51.230;22.504;2024-03-08T08:29:37;14.93;;;9.88;;
32946;SDS011;54465;51.230;22.504;2024-03-08T08:34:37;16.10;;;10.43;;
32946;SDS011;54465;51.230;22.504;2024-03-08T08:39:38;14.50;;;9.88;;
32946;SDS011;54465;51.230;22.504;2024-03-08T08:44:38;15.18;;;10.13;;
32946;SDS011;54465;51.230;22.504;2024-03-08T08:49:39;15.02;;;9.77;;
32946;SDS011;54465;51.230;22.504;2024-03-08T08:54:39;16.45;;;9.95;;
32946;SDS011;54465;51.230;22.504;2024-03-08T08:59:40;15.10;;;9.07;;
32946;SDS011;54465;51.230;22.504;2024-03-08T09:04:40;16.63;;;9.98;;
32946;SDS011;54465;51.230;22.504;2024-03-08T09:09:41;14.43;;;8.55;;
32946;SDS011;54465;51.230;22.504;2024-03-08T09:14:42;13.57;;;8.02;;
32946;SDS011;54465;51.230;22.504;2024-03-08T09:19:43;15.45;;;8.95;;
32946;SDS011;54465;51.230;22.504;2024-03-08T09:24:44;14.13;;;8.73;;
32946;SDS011;54465;51.230;22.504;2024-03-08T09:29:45;14.23;;;9.10;;
32946;SDS011;54465;51.230;22.504;2024-03-08T09:34:46;14.77;;;8.57;;
32946;SDS011;54465;51.230;22.504;2024-03-08T09:39:47;12.70;;;8.52;;
32946;SDS011;54465;51.230;22.504;2024-03-08T09:44:48;17.77;;;10.73;;
32946;SDS011;54465;51.230;22.504;2024-03-08T09:49:49;20.42;;;12.70;;
32946;SDS011;54465;51.230;22.504;2024-03-08T09:54:49;20.27;;;12.90;;
32946;SDS011;54465;51.230;22.504;2024-03-08T09:59:50;18.33;;;12.20;;
32946;SDS011;54465;51.230;22.504;2024-03-08T10:04:51;19.52;;;12.68;;
32946;SDS011;54465;51.230;22.504;2024-03-08T10:09:53;19.83;;;12.00;;
32946;SDS011;54465;51.230;22.504;2024-03-08T10:14:55;18.70;;;12.90;;
32946;SDS011;54465;51.230;22.504;2024-03-08T10:19:56;17.38;;;11.73;;
32946;SDS011;54465;51.230;22.504;2024-03-08T10:24:59;20.67;;;12.75;;
32946;SDS011;54465;51.230;22.504;2024-03-08T10:30:00;21.92;;;11.68;;
32946;SDS011;54465;51.230;22.504;2024-03-08T10:35:01;16.67;;;10.80;;
32946;SDS011;54465;51.230;22.504;2024-03-08T10:40:02;17.13;;;10.63;;
32946;SDS011;54465;51.230;22.504;2024-03-08T10:50:23;18.77;;;11.95;;
32946;SDS011;54465;51.230;22.504;2024-03-08T10:55:25;18.42;;;11.05;;
32946;SDS011;54465;51.230;22.504;2024-03-08T11:00:26;18.70;;;10.70;;
32946;SDS011;54465;51.230;22.504;2024-03-08T11:05:40;18.05;;;10.55;;
32946;SDS011;54465;51.230;22.504;2024-03-08T11:10:50;16.58;;;10.38;;
32946;SDS011;54465;51.230;22.504;2024-03-08T11:15:53;18.17;;;10.85;;
32946;SDS011;54465;51.230;22.504;2024-03-08T11:20:54;16.20;;;10.90;;
32946;SDS011;54465;51.230;22.504;2024-03-08T11:25:54;17.65;;;10.95;;
32946;SDS011;54465;51.230;22.504;2024-03-08T11:36:09;18.63;;;11.70;;
32946;SDS011;54465;51.230;22.504;2024-03-08T11:41:11;16.25;;;10.85;;
32946;SDS011;54465;51.230;22.504;2024-03-08T11:46:14;18.52;;;11.35;;
32946;SDS011;54465;51.230;22.504;2024-03-08T11:51:16;16.27;;;10.77;;
32946;SDS011;54465;51.230;22.504;2024-03-08T11:56:18;16.98;;;11.38;;
32946;SDS011;54465;51.230;22.504;2024-03-08T12:01:22;15.82;;;11.45;;
32946;SDS011;54465;51.230;22.504;2024-03-08T12:06:23;16.67;;;12.02;;
32946;SDS011;54465;51.230;22.504;2024-03-08T12:11:24;20.30;;;11.43;;
32946;SDS011;54465;51.230;22.504;2024-03-08T12:16:25;18.55;;;11.65;;
32946;SDS011;54465;51.230;22.504;2024-03-08T12:21:26;18.48;;;11.60;;
32946;SDS011;54465;51.230;22.504;2024-03-08T12:26:29;15.23;;;10.82;;
32946;SDS011;54465;51.230;22.504;2024-03-08T12:31:32;16.95;;;11.07;;
32946;SDS011;54465;51.230;22.504;2024-03-08T12:36:33;15.95;;;10.65;;
32946;SDS011;54465;51.230;22.504;2024-03-08T12:41:38;17.02;;;10.32;;
32946;SDS011;54465;51.230;22.504;2024-03-08T12:46:39;13.82;;;9.98;;
32946;SDS011;54465;51.230;22.504;2024-03-08T12:51:45;15.18;;;10.02;;
32946;SDS011;54465;51.230;22.504;2024-03-08T12:56:45;15.60;;;10.25;;
32946;SDS011;54465;51.230;22.504;2024-03-08T13:01:46;18.13;;;10.68;;
32946;SDS011;54465;51.230;22.504;2024-03-08T13:06:47;18.38;;;11.57;;
32946;SDS011;54465;51.230;22.504;2024-03-08T13:11:50;17.70;;;9.60;;
32946;SDS011;54465;51.230;22.504;2024-03-08T13:16:50;17.25;;;11.68;;
32946;SDS011;54465;51.230;22.504;2024-03-08T13:21:51;16.35;;;11.02;;
32946;SDS011;54465;51.230;22.504;2024-03-08T13:26:53;15.52;;;10.95;;
32946;SDS011;54465;51.230;22.504;2024-03-08T13:31:54;14.27;;;10.45;;
32946;SDS011;54465;51.230;22.504;2024-03-08T13:36:57;15.73;;;9.90;;
32946;SDS011;54465;51.230;22.504;2024-03-08T13:42:00;16.35;;;11.18;;
32946;SDS011;54465;51.230;22.504;2024-03-08T13:47:00;17.30;;;11.18;;
32946;SDS011;54465;51.230;22.504;2024-03-08T13:52:04;16.10;;;11.63;;
32946;SDS011;54465;51.230;22.504;2024-03-08T13:57:05;14.85;;;10.48;;
32946;SDS011;54465;51.230;22.504;2024-03-08T14:02:07;15.50;;;11.05;;
32946;SDS011;54465;51.230;22.504;2024-03-08T14:07:13;16.88;;;10.93;;
32946;SDS011;54465;51.230;22.504;2024-03-08T14:12:13;18.75;;;12.00;;
32946;SDS011;54465;51.230;22.504;2024-03-08T14:17:14;16.17;;;12.00;;
32946;SDS011;54465;51.230;22.504;2024-03-08T14:22:17;17.02;;;12.05;;
32946;SDS011;54465;51.230;22.504;2024-03-08T14:27:18;18.05;;;11.02;;
32946;SDS011;54465;51.230;22.504;2024-03-08T14:32:18;18.75;;;9.75;;
32946;SDS011;54465;51.230;22.504;2024-03-08T14:37:23;15.45;;;9.82;;
32946;SDS011;54465;51.230;22.504;2024-03-08T14:42:28;14.77;;;9.93;;
32946;SDS011;54465;51.230;22.504;2024-03-08T14:47:28;19.40;;;12.57;;
32946;SDS011;54465;51.230;22.504;2024-03-08T14:52:29;18.38;;;11.15;;
32946;SDS011;54465;51.230;22.504;2024-03-08T14:57:29;18.42;;;11.65;;
32946;SDS011;54465;51.230;22.504;2024-03-08T15:02:32;15.98;;;10.85;;
32946;SDS011;54465;51.230;22.504;2024-03-08T15:07:37;16.35;;;10.35;;
32946;SDS011;54465;51.230;22.504;2024-03-08T15:12:39;17.75;;;10.43;;
32946;SDS011;54465;51.230;22.504;2024-03-08T15:17:39;17.48;;;10.25;;
32946;SDS011;54465;51.230;22.504;2024-03-08T15:22:41;16.17;;;10.45;;
32946;SDS011;54465;51.230;22.504;2024-03-08T15:27:48;18.15;;;11.95;;
32946;SDS011;54465;51.230;22.504;2024-03-08T15:32:49;19.92;;;12.90;;
32946;SDS011;54465;51.230;22.504;2024-03-08T15:37:56;19.85;;;13.60;;
32946;SDS011;54465;51.230;22.504;2024-03-08T15:42:58;18.50;;;11.85;;
32946;SDS011;54465;51.230;22.504;2024-03-08T15:47:58;20.05;;;12.60;;
32946;SDS011;54465;51.230;22.504;2024-03-08T15:53:05;19.27;;;12.88;;
32946;SDS011;54465;51.230;22.504;2024-03-08T15:58:06;18.10;;;12.40;;
32946;SDS011;54465;51.230;22.504;2024-03-08T16:03:06;18.98;;;12.57;;
32946;SDS011;54465;51.230;22.504;2024-03-08T16:08:11;20.02;;;12.40;;
32946;SDS011;54465;51.230;22.504;2024-03-08T16:13:24;20.15;;;13.85;;
32946;SDS011;54465;51.230;22.504;2024-03-08T16:18:25;18.05;;;12.75;;
32946;SDS011;54465;51.230;22.504;2024-03-08T16:23:25;20.85;;;13.50;;
32946;SDS011;54465;51.230;22.504;2024-03-08T16:28:26;23.25;;;14.15;;
32946;SDS011;54465;51.230;22.504;2024-03-08T16:33:28;23.85;;;14.02;;
32946;SDS011;54465;51.230;22.504;2024-03-08T16:38:28;25.40;;;14.95;;
32946;SDS011;54465;51.230;22.504;2024-03-08T16:43:29;30.08;;;17.63;;
32946;SDS011;54465;51.230;22.504;2024-03-08T16:48:29;31.77;;;18.08;;
32946;SDS011;54465;51.230;22.504;2024-03-08T16:53:30;31.10;;;18.40;;
32946;SDS011;54465;51.230;22.504;2024-03-08T16:58:34;26.42;;;17.52;;
32946;SDS011;54465;51.230;22.504;2024-03-08T17:03:34;32.72;;;18.27;;
32946;SDS011;54465;51.230;22.504;2024-03-08T17:08:36;30.15;;;18.23;;
32946;SDS011;54465;51.230;22.504;2024-03-08T17:13:37;30.75;;;18.75;;
32946;SDS011;54465;51.230;22.504;2024-03-08T17:18:38;30.42;;;18.65;;
32946;SDS011;54465;51.230;22.504;2024-03-08T17:23:41;35.00;;;19.45;;
32946;SDS011;54465;51.230;22.504;2024-03-08T17:28:42;38.00;;;19.65;;
32946;SDS011;54465;51.230;22.504;2024-03-08T17:33:43;32.15;;;20.15;;
32946;SDS011;54465;51.230;22.504;2024-03-08T17:38:45;32.05;;;19.80;;
32946;SDS011;54465;51.230;22.504;2024-03-08T17:43:46;33.95;;;19.15;;
32946;SDS011;54465;51.230;22.504;2024-03-08T17:48:46;25.15;;;15.13;;
32946;SDS011;54465;51.230;22.504;2024-03-08T17:53:47;28.65;;;15.57;;
32946;SDS011;54465;51.230;22.504;2024-03-08T17:58:51;33.65;;;18.75;;
32946;SDS011;54465;51.230;22.504;2024-03-08T18:03:51;35.80;;;20.35;;
32946;SDS011;54465;51.230;22.504;2024-03-08T18:08:53;28.98;;;17.55;;
32946;SDS011;54465;51.230;22.504;2024-03-08T18:13:53;31.15;;;18.20;;
32946;SDS011;54465;51.230;22.504;2024-03-08T18:18:54;32.67;;;19.20;;
32946;SDS011;54465;51.230;22.504;2024-03-08T18:23:55;48.85;;;24.73;;
32946;SDS011;54465;51.230;22.504;2024-03-08T18:28:55;63.67;;;33.63;;
32946;SDS011;54465;51.230;22.504;2024-03-08T18:33:56;62.45;;;34.45;;
32946;SDS011;54465;51.230;22.504;2024-03-08T18:39:00;64.65;;;35.72;;
32946;SDS011;54465;51.230;22.504;2024-03-08T18:44:03;77.55;;;40.10;;
32946;SDS011;54465;51.230;22.504;2024-03-08T18:49:04;58.63;;;35.00;;
32946;SDS011;54465;51.230;22.504;2024-03-08T18:54:05;80.80;;;45.35;;
32946;SDS011;54465;51.230;22.504;2024-03-08T18:59:05;83.25;;;44.53;;
32946;SDS011;54465;51.230;22.504;2024-03-08T19:04:09;121.47;;;68.60;;
32946;SDS011;54465;51.230;22.504;2024-03-08T19:09:10;102.53;;;61.22;;
32946;SDS011;54465;51.230;22.504;2024-03-08T19:14:14;100.57;;;59.53;;
32946;SDS011;54465;51.230;22.504;2024-03-08T19:19:18;92.82;;;52.65;;
32946;SDS011;54465;51.230;22.504;2024-03-08T19:24:21;69.28;;;41.20;;
32946;SDS011;54465;51.230;22.504;2024-03-08T19:29:22;72.50;;;45.30;;
32946;SDS011;54465;51.230;22.504;2024-03-08T19:34:25;70.57;;;39.88;;
32946;SDS011;54465;51.230;22.504;2024-03-08T19:39:26;70.85;;;40.80;;
32946;SDS011;54465;51.230;22.504;2024-03-08T19:44:27;65.97;;;37.40;;
32946;SDS011;54465;51.230;22.504;2024-03-08T19:49:28;65.57;;;39.30;;
32946;SDS011;54465;51.230;22.504;2024-03-08T19:54:28;73.35;;;38.78;;
32946;SDS011;54465;51.230;22.504;2024-03-08T19:59:29;80.90;;;38.47;;
32946;SDS011;54465;51.230;22.504;2024-03-08T20:04:31;94.13;;;44.55;;
32946;SDS011;54465;51.230;22.504;2024-03-08T20:09:31;128.65;;;54.28;;
32946;SDS011;54465;51.230;22.504;2024-03-08T20:14:32;119.70;;;51.92;;
32946;SDS011;54465;51.230;22.504;2024-03-08T20:19:35;90.45;;;44.58;;
32946;SDS011;54465;51.230;22.504;2024-03-08T20:24:36;68.90;;;37.17;;
32946;SDS011;54465;51.230;22.504;2024-03-08T20:29:38;81.05;;;41.13;;
32946;SDS011;54465;51.230;22.504;2024-03-08T20:34:41;72.28;;;39.17;;
32946;SDS011;54465;51.230;22.504;2024-03-08T20:39:45;70.32;;;37.67;;
32946;SDS011;54465;51.230;22.504;2024-03-08T20:44:46;78.63;;;39.88;;
32946;SDS011;54465;51.230;22.504;2024-03-08T20:49:47;85.65;;;43.95;;
32946;SDS011;54465;51.230;22.504;2024-03-08T20:54:50;88.20;;;47.58;;
32946;SDS011;54465;51.230;22.504;2024-03-08T20:59:50;96.53;;;48.13;;
32946;SDS011;54465;51.230;22.504;2024-03-08T21:04:51;106.13;;;52.20;;
32946;SDS011;54465;51.230;22.504;2024-03-08T21:09:52;99.93;;;50.75;;
32946;SDS011;54465;51.230;22.504;2024-03-08T21:14:53;77.93;;;39.80;;
32946;SDS011;54465;51.230;22.504;2024-03-08T21:19:53;92.18;;;47.47;;
32946;SDS011;54465;51.230;22.504;2024-03-08T21:24:54;83.35;;;42.65;;
32946;SDS011;54465;51.230;22.504;2024-03-08T21:29:54;80.00;;;42.10;;
32946;SDS011;54465;51.230;22.504;2024-03-08T21:34:56;65.45;;;34.63;;
32946;SDS011;54465;51.230;22.504;2024-03-08T21:39:57;69.53;;;36.10;;
32946;SDS011;54465;51.230;22.504;2024-03-08T21:44:57;79.38;;;40.65;;
32946;SDS011;54465;51.230;22.504;2024-03-08T21:49:58;74.15;;;38.03;;
32946;SDS011;54465;51.230;22.504;2024-03-08T21:54:59;79.63;;;41.17;;
32946;SDS011;54465;51.230;22.504;2024-03-08T21:59:59;91.20;;;44.47;;
32946;SDS011;54465;51.230;22.504;2024-03-08T22:05:00;76.20;;;40.10;;
32946;SDS011;54465;51.230;22.504;2024-03-08T22:10:00;76.03;;;41.90;;
32946;SDS011;54465;51.230;22.504;2024-03-08T22:15:01;91.15;;;46.45;;
32946;SDS011;54465;51.230;22.504;2024-03-08T22:20:03;81.88;;;42.03;;
32946;SDS011;54465;51.230;22.504;2024-03-08T22:25:15;88.93;;;45.08;;
32946;SDS011;54465;51.230;22.504;2024-03-08T22:30:20;89.03;;;46.95;;
32946;SDS011;54465;51.230;22.504;2024-03-08T22:35:24;78.25;;;42.97;;
32946;SDS011;54465;51.230;22.504;2024-03-08T22:40:24;86.28;;;45.65;;
32946;SDS011;54465;51.230;22.504;2024-03-08T22:45:27;94.78;;;50.42;;
32946;SDS011;54465;51.230;22.504;2024-03-08T22:50:27;88.32;;;44.58;;
32946;SDS011;54465;51.230;22.504;2024-03-08T22:55:30;81.10;;;43.40;;
32946;SDS011;54465;51.230;22.504;2024-03-08T23:00:30;80.72;;;42.25;;
32946;SDS011;54465;51.230;22.504;2024-03-08T23:05:39;80.35;;;43.78;;
32946;SDS011;54465;51.230;22.504;2024-03-08T23:10:41;95.38;;;50.30;;
32946;SDS011;54465;51.230;22.504;2024-03-08T23:15:42;95.07;;;48.60;;
32946;SDS011;54465;51.230;22.504;2024-03-08T23:20:43;92.72;;;50.05;;
32946;SDS011;54465;51.230;22.504;2024-03-08T23:25:44;93.68;;;49.75;;
32946;SDS011;54465;51.230;22.504;2024-03-08T23:30:45;90.90;;;47.13;;
32946;SDS011;54465;51.230;22.504;2024-03-08T23:35:45;86.60;;;45.40;;
32946;SDS011;54465;51.230;22.504;2024-03-08T23:40:46;83.70;;;45.22;;
32946;SDS011;54465;51.230;22.504;2024-03-08T23:45:47;85.78;;;46.25;;
32946;SDS011;54465;51.230;22.504;2024-03-08T23:50:48;85.93;;;42.38;;
32946;SDS011;54465;51.230;22.504;2024-03-08T23:55:49;86.60;;;45.08;;
